sensor_id;sensor_type;location;lat;lon;timestamp;pressure;altitude;pressure_sealevel;temperature;humidity
55373;BME280;41249;47.838;16.490;2023-02-24T00:01:56;98833.91;;;3.07;71.12
55373;BME280;41249;47.838;16.490;2023-02-24T00:04:28;98832.19;;;3.03;71.56
55373;BME280;41249;47.838;16.490;2023-02-24T00:06:56;98822.41;;;3.02;71.55
55373;BME280;41249;47.838;16.490;2023-02-24T00:09:25;98827.88;;;3.02;71.56
55373;BME280;41249;47.838;16.490;2023-02-24T00:11:56;98823.22;;;3.02;72.03
55373;BME280;41249;47.838;16.490;2023-02-24T00:14:25;98823.97;;;3.03;71.63
55373;BME280;41249;47.838;16.490;2023-02-24T00:16:53;98814.19;;;3.02;71.46
55373;BME280;41249;47.838;16.490;2023-02-24T00:19:22;98820.81;;;3.01;72.29
55373;BME280;41249;47.838;16.490;2023-02-24T00:21:49;98823.53;;;3.01;71.72
55373;BME280;41249;47.838;16.490;2023-02-24T00:24:17;98818.06;;;3.01;71.41
55373;BME280;41249;47.838;16.490;2023-02-24T00:26:44;98809.50;;;3.02;71.70
55373;BME280;41249;47.838;16.490;2023-02-24T00:29:13;98813.75;;;3.00;71.80
55373;BME280;41249;47.838;16.490;2023-02-24T00:31:40;98804.72;;;2.99;72.18
55373;BME280;41249;47.838;16.490;2023-02-24T00:34:09;98805.81;;;2.95;72.37
55373;BME280;41249;47.838;16.490;2023-02-24T00:36:38;98800.66;;;2.93;72.25
55373;BME280;41249;47.838;16.490;2023-02-24T00:39:07;98798.22;;;2.88;72.52
55373;BME280;41249;47.838;16.490;2023-02-24T00:41:42;98802.41;;;2.82;72.45
55373;BME280;41249;47.838;16.490;2023-02-24T00:44:12;98796.91;;;2.82;72.43
55373;BME280;41249;47.838;16.490;2023-02-24T00:46:42;98791.00;;;2.80;72.37
55373;BME280;41249;47.838;16.490;2023-02-24T00:49:17;98783.41;;;2.73;72.23
55373;BME280;41249;47.838;16.490;2023-02-24T00:51:46;98784.56;;;2.72;72.35
55373;BME280;41249;47.838;16.490;2023-02-24T00:54:15;98783.69;;;2.68;72.55
55373;BME280;41249;47.838;16.490;2023-02-24T00:56:43;98783.97;;;2.63;72.53
55373;BME280;41249;47.838;16.490;2023-02-24T00:59:13;98782.81;;;2.64;72.49
55373;BME280;41249;47.838;16.490;2023-02-24T01:01:40;98775.31;;;2.61;73.02
55373;BME280;41249;47.838;16.490;2023-02-24T01:04:08;98781.50;;;2.58;72.43
55373;BME280;41249;47.838;16.490;2023-02-24T01:06:40;98781.88;;;2.57;72.79
55373;BME280;41249;47.838;16.490;2023-02-24T01:09:07;98775.00;;;2.47;72.78
55373;BME280;41249;47.838;16.490;2023-02-24T01:11:34;98768.00;;;2.50;72.81
55373;BME280;41249;47.838;16.490;2023-02-24T01:14:23;98769.09;;;2.45;72.65
55373;BME280;41249;47.838;16.490;2023-02-24T01:16:50;98762.09;;;2.48;72.78
55373;BME280;41249;47.838;16.490;2023-02-24T01:19:21;98761.78;;;2.53;72.75
55373;BME280;41249;47.838;16.490;2023-02-24T01:21:49;98761.97;;;2.60;72.42
55373;BME280;41249;47.838;16.490;2023-02-24T01:24:21;98763.22;;;2.62;72.66
55373;BME280;41249;47.838;16.490;2023-02-24T01:26:49;98758.00;;;2.57;72.63
55373;BME280;41249;47.838;16.490;2023-02-24T01:29:16;98752.53;;;2.57;nan
55373;BME280;41249;47.838;16.490;2023-02-24T01:31:43;98750.22;;;2.59;73.15
55373;BME280;41249;47.838;16.490;2023-02-24T01:34:11;98750.22;;;2.59;73.07
55373;BME280;41249;47.838;16.490;2023-02-24T01:36:40;98746.69;;;2.59;73.48
55373;BME280;41249;47.838;16.490;2023-02-24T01:39:10;98745.53;;;2.60;73.27
55373;BME280;41249;47.838;16.490;2023-02-24T01:41:39;98744.66;;;2.56;73.74
55373;BME280;41249;47.838;16.490;2023-02-24T01:46:58;98742.56;;;2.68;74.16
55373;BME280;41249;47.838;16.490;2023-02-24T01:49:39;98736.22;;;2.64;73.65
55373;BME280;41249;47.838;16.490;2023-02-24T01:52:12;98737.94;;;2.53;73.82
55373;BME280;41249;47.838;16.490;2023-02-24T01:54:47;98732.69;;;2.45;74.18
55373;BME280;41249;47.838;16.490;2023-02-24T01:57:17;98732.44;;;2.34;74.41
55373;BME280;41249;47.838;16.490;2023-02-24T01:59:51;98723.34;;;2.30;74.67
55373;BME280;41249;47.838;16.490;2023-02-24T02:02:20;98723.78;;;2.32;74.64
55373;BME280;41249;47.838;16.490;2023-02-24T02:04:53;98739.03;;;2.33;74.87
55373;BME280;41249;47.838;16.490;2023-02-24T02:07:23;98731.63;;;2.34;74.75
55373;BME280;41249;47.838;16.490;2023-02-24T02:09:52;98728.03;;;2.30;75.00
55373;BME280;41249;47.838;16.490;2023-02-24T02:12:21;98729.16;;;2.29;74.77
55373;BME280;41249;47.838;16.490;2023-02-24T02:14:51;98726.78;;;2.27;74.85
55373;BME280;41249;47.838;16.490;2023-02-24T02:17:35;98725.91;;;2.23;74.87
55373;BME280;41249;47.838;16.490;2023-02-24T02:26:13;98724.06;;;2.11;75.44
55373;BME280;41249;47.838;16.490;2023-02-24T02:29:06;98722.84;;;2.09;74.77
55373;BME280;41249;47.838;16.490;2023-02-24T02:37:33;98726.56;;;2.01;74.61
55373;BME280;41249;47.838;16.490;2023-02-24T02:40:09;98727.72;;;2.00;74.95
55373;BME280;41249;47.838;16.490;2023-02-24T02:42:53;98724.53;;;1.98;75.22
55373;BME280;41249;47.838;16.490;2023-02-24T02:45:45;98726.81;;;1.96;75.46
55373;BME280;41249;47.838;16.490;2023-02-24T02:50:57;98723.66;;;1.94;76.03
55373;BME280;41249;47.838;16.490;2023-02-24T02:53:55;98723.91;;;1.89;75.92
55373;BME280;41249;47.838;16.490;2023-02-24T02:56:31;98722.41;;;1.91;76.30
55373;BME280;41249;47.838;16.490;2023-02-24T02:59:00;98722.06;;;1.93;76.17
55373;BME280;41249;47.838;16.490;2023-02-24T03:01:32;98712.53;;;1.87;76.28
55373;BME280;41249;47.838;16.490;2023-02-24T03:04:06;98715.72;;;1.73;76.19
55373;BME280;41249;47.838;16.490;2023-02-24T03:06:42;98709.78;;;1.71;76.67
55373;BME280;41249;47.838;16.490;2023-02-24T03:09:18;98712.19;;;1.73;76.48
55373;BME280;41249;47.838;16.490;2023-02-24T03:12:07;98720.13;;;1.62;76.89
55373;BME280;41249;47.838;16.490;2023-02-24T03:14:38;98718.28;;;1.51;76.72
55373;BME280;41249;47.838;16.490;2023-02-24T03:17:10;98715.69;;;1.42;77.19
55373;BME280;41249;47.838;16.490;2023-02-24T03:19:43;98712.53;;;1.40;77.14
55373;BME280;41249;47.838;16.490;2023-02-24T03:22:15;98709.94;;;1.31;77.25
55373;BME280;41249;47.838;16.490;2023-02-24T03:24:44;98711.72;;;1.39;77.42
55373;BME280;41249;47.838;16.490;2023-02-24T03:27:18;98717.63;;;1.41;76.99
55373;BME280;41249;47.838;16.490;2023-02-24T03:29:52;98715.09;;;1.48;76.97
55373;BME280;41249;47.838;16.490;2023-02-24T03:32:25;98714.91;;;1.57;77.46
55373;BME280;41249;47.838;16.490;2023-02-24T03:37:33;98712.00;;;1.66;77.00
55373;BME280;41249;47.838;16.490;2023-02-24T03:40:05;98715.97;;;1.68;77.07
55373;BME280;41249;47.838;16.490;2023-02-24T03:42:57;98710.69;;;1.75;77.06
55373;BME280;41249;47.838;16.490;2023-02-24T03:45:25;98705.91;;;1.57;76.85
55373;BME280;41249;47.838;16.490;2023-02-24T03:47:53;98706.28;;;1.55;77.41
55373;BME280;41249;47.838;16.490;2023-02-24T03:50:21;98705.56;;;1.58;76.71
55373;BME280;41249;47.838;16.490;2023-02-24T03:56:12;98703.72;;;1.78;76.86
55373;BME280;41249;47.838;16.490;2023-02-24T04:01:35;98701.91;;;2.01;76.47
55373;BME280;41249;47.838;16.490;2023-02-24T04:04:11;98695.03;;;2.07;76.50
55373;BME280;41249;47.838;16.490;2023-02-24T04:06:46;98698.56;;;2.07;76.72
55373;BME280;41249;47.838;16.490;2023-02-24T04:11:55;98684.09;;;2.07;76.33
55373;BME280;41249;47.838;16.490;2023-02-24T04:17:07;98680.13;;;1.89;76.38
55373;BME280;41249;47.838;16.490;2023-02-24T04:19:40;98680.22;;;1.92;76.22
55373;BME280;41249;47.838;16.490;2023-02-24T04:22:11;98680.28;;;1.96;76.71
55373;BME280;41249;47.838;16.490;2023-02-24T04:24:40;98673.69;;;1.97;76.79
55373;BME280;41249;47.838;16.490;2023-02-24T04:27:10;98677.66;;;1.99;76.49
55373;BME280;41249;47.838;16.490;2023-02-24T04:29:48;98675.22;;;2.13;76.24
55373;BME280;41249;47.838;16.490;2023-02-24T04:32:20;98680.09;;;2.20;76.33
55373;BME280;41249;47.838;16.490;2023-02-24T04:34:48;98676.59;;;2.23;75.82
55373;BME280;41249;47.838;16.490;2023-02-24T04:37:16;98675.03;;;2.22;75.88
55373;BME280;41249;47.838;16.490;2023-02-24T04:39:42;98667.53;;;2.19;76.07
55373;BME280;41249;47.838;16.490;2023-02-24T04:42:11;98665.94;;;2.18;75.76
55373;BME280;41249;47.838;16.490;2023-02-24T04:44:37;98660.81;;;2.17;76.02
55373;BME280;41249;47.838;16.490;2023-02-24T04:47:04;98651.22;;;2.07;76.01
55373;BME280;41249;47.838;16.490;2023-02-24T04:49:31;98655.19;;;2.09;75.94
55373;BME280;41249;47.838;16.490;2023-02-24T04:51:58;98652.25;;;2.18;75.55
55373;BME280;41249;47.838;16.490;2023-02-24T04:54:24;98646.47;;;2.23;75.35
55373;BME280;41249;47.838;16.490;2023-02-24T04:56:51;98646.19;;;2.28;74.89
55373;BME280;41249;47.838;16.490;2023-02-24T04:59:19;98641.47;;;2.25;75.34
55373;BME280;41249;47.838;16.490;2023-02-24T05:01:46;98648.16;;;2.28;75.63
55373;BME280;41249;47.838;16.490;2023-02-24T05:04:16;98640.38;;;2.30;75.53
55373;BME280;41249;47.838;16.490;2023-02-24T05:06:44;98647.94;;;2.36;75.94
55373;BME280;41249;47.838;16.490;2023-02-24T05:09:15;98638.31;;;2.42;75.68
55373;BME280;41249;47.838;16.490;2023-02-24T05:11:45;98653.09;;;2.38;76.11
55373;BME280;41249;47.838;16.490;2023-02-24T05:14:16;98640.81;;;2.32;76.01
55373;BME280;41249;47.838;16.490;2023-02-24T05:16:45;98633.69;;;2.27;76.29
55373;BME280;41249;47.838;16.490;2023-02-24T05:19:14;98630.13;;;2.07;76.50
55373;BME280;41249;47.838;16.490;2023-02-24T05:22:00;98639.09;;;2.08;76.93
55373;BME280;41249;47.838;16.490;2023-02-24T05:24:29;98629.03;;;2.12;76.40
55373;BME280;41249;47.838;16.490;2023-02-24T05:26:57;98627.28;;;2.04;76.34
55373;BME280;41249;47.838;16.490;2023-02-24T05:29:29;98625.22;;;1.97;76.14
55373;BME280;41249;47.838;16.490;2023-02-24T05:31:56;98618.22;;;2.00;76.26
55373;BME280;41249;47.838;16.490;2023-02-24T05:34:28;98616.63;;;1.99;76.51
55373;BME280;41249;47.838;16.490;2023-02-24T05:36:59;98617.44;;;1.99;76.23
55373;BME280;41249;47.838;16.490;2023-02-24T05:39:27;98605.69;;;1.99;76.63
55373;BME280;41249;47.838;16.490;2023-02-24T05:41:54;98617.28;;;1.92;76.64
55373;BME280;41249;47.838;16.490;2023-02-24T05:44:24;98616.75;;;1.87;76.64
55373;BME280;41249;47.838;16.490;2023-02-24T05:46:55;98616.66;;;1.83;76.59
55373;BME280;41249;47.838;16.490;2023-02-24T05:49:27;98622.41;;;1.78;76.85
55373;BME280;41249;47.838;16.490;2023-02-24T05:51:57;98620.56;;;1.67;76.19
55373;BME280;41249;47.838;16.490;2023-02-24T05:54:27;98612.53;;;1.58;76.39
55373;BME280;41249;47.838;16.490;2023-02-24T05:57:02;98614.63;;;1.45;77.14
55373;BME280;41249;47.838;16.490;2023-02-24T05:59:29;98601.81;;;1.49;76.73
55373;BME280;41249;47.838;16.490;2023-02-24T06:02:04;98605.94;;;1.43;76.48
55373;BME280;41249;47.838;16.490;2023-02-24T06:04:34;98607.97;;;1.31;76.79
55373;BME280;41249;47.838;16.490;2023-02-24T06:07:17;98608.50;;;1.21;76.84
55373;BME280;41249;47.838;16.490;2023-02-24T06:09:46;98618.66;;;1.20;77.33
55373;BME280;41249;47.838;16.490;2023-02-24T06:12:16;98615.81;;;1.01;77.33
55373;BME280;41249;47.838;16.490;2023-02-24T06:14:43;98619.16;;;0.95;77.21
55373;BME280;41249;47.838;16.490;2023-02-24T06:17:10;98614.06;;;0.93;77.69
55373;BME280;41249;47.838;16.490;2023-02-24T06:19:37;98615.88;;;0.89;77.80
55373;BME280;41249;47.838;16.490;2023-02-24T06:22:04;98618.09;;;0.99;77.77
55373;BME280;41249;47.838;16.490;2023-02-24T06:24:36;98621.50;;;1.08;77.27
55373;BME280;41249;47.838;16.490;2023-02-24T06:27:03;98608.97;;;1.07;77.48
55373;BME280;41249;47.838;16.490;2023-02-24T06:29:36;98622.38;;;1.12;77.74
55373;BME280;41249;47.838;16.490;2023-02-24T06:32:03;98615.47;;;1.18;77.22
55373;BME280;41249;47.838;16.490;2023-02-24T06:34:37;98616.91;;;1.28;77.22
55373;BME280;41249;47.838;16.490;2023-02-24T06:37:05;98611.25;;;1.36;76.86
55373;BME280;41249;47.838;16.490;2023-02-24T06:39:33;98613.97;;;1.52;76.95
55373;BME280;41249;47.838;16.490;2023-02-24T06:42:03;98605.41;;;1.69;76.64
55373;BME280;41249;47.838;16.490;2023-02-24T06:44:31;98604.66;;;1.88;77.44
55373;BME280;41249;47.838;16.490;2023-02-24T06:46:58;98601.09;;;2.03;76.52
55373;BME280;41249;47.838;16.490;2023-02-24T06:49:26;98603.47;;;2.24;75.49
55373;BME280;41249;47.838;16.490;2023-02-24T06:51:53;98608.75;;;2.32;75.00
55373;BME280;41249;47.838;16.490;2023-02-24T06:54:26;98602.84;;;2.49;74.69
55373;BME280;41249;47.838;16.490;2023-02-24T06:56:59;98612.56;;;2.47;75.41
55373;BME280;41249;47.838;16.490;2023-02-24T06:59:25;98607.31;;;2.57;75.06
55373;BME280;41249;47.838;16.490;2023-02-24T07:01:56;98603.97;;;2.67;75.06
55373;BME280;41249;47.838;16.490;2023-02-24T07:04:24;98601.50;;;2.82;75.24
55373;BME280;41249;47.838;16.490;2023-02-24T07:06:56;98604.50;;;2.96;74.95
55373;BME280;41249;47.838;16.490;2023-02-24T07:09:24;98599.28;;;3.10;75.46
55373;BME280;41249;47.838;16.490;2023-02-24T07:11:53;98601.13;;;3.25;74.53
55373;BME280;41249;47.838;16.490;2023-02-24T07:14:24;98587.97;;;3.34;74.36
55373;BME280;41249;47.838;16.490;2023-02-24T07:16:51;98589.59;;;3.38;75.37
55373;BME280;41249;47.838;16.490;2023-02-24T07:19:26;98585.09;;;3.50;74.33
55373;BME280;41249;47.838;16.490;2023-02-24T07:21:57;98581.44;;;3.68;74.99
55373;BME280;41249;47.838;16.490;2023-02-24T07:24:34;98582.03;;;3.81;74.67
55373;BME280;41249;47.838;16.490;2023-02-24T07:27:11;98587.28;;;3.89;74.65
55373;BME280;41249;47.838;16.490;2023-02-24T07:29:38;98586.88;;;3.91;74.24
55373;BME280;41249;47.838;16.490;2023-02-24T07:32:07;98578.63;;;3.87;74.87
55373;BME280;41249;47.838;16.490;2023-02-24T07:34:35;98582.47;;;4.13;74.07
55373;BME280;41249;47.838;16.490;2023-02-24T07:37:06;98573.69;;;4.30;73.44
55373;BME280;41249;47.838;16.490;2023-02-24T07:39:37;98576.28;;;4.52;72.52
55373;BME280;41249;47.838;16.490;2023-02-24T07:42:06;98575.63;;;4.62;73.25
55373;BME280;41249;47.838;16.490;2023-02-24T07:44:33;98567.22;;;4.82;72.43
55373;BME280;41249;47.838;16.490;2023-02-24T07:47:00;98562.75;;;5.10;71.54
55373;BME280;41249;47.838;16.490;2023-02-24T07:49:26;98565.44;;;5.44;70.99
55373;BME280;41249;47.838;16.490;2023-02-24T07:51:55;98559.34;;;5.68;69.84
55373;BME280;41249;47.838;16.490;2023-02-24T07:54:25;98552.69;;;5.76;70.16
55373;BME280;41249;47.838;16.490;2023-02-24T07:56:56;98554.38;;;5.91;70.11
55373;BME280;41249;47.838;16.490;2023-02-24T07:59:30;98554.81;;;5.96;70.20
55373;BME280;41249;47.838;16.490;2023-02-24T08:01:58;98553.69;;;6.08;70.37
55373;BME280;41249;47.838;16.490;2023-02-24T08:04:28;98557.31;;;6.26;70.03
55373;BME280;41249;47.838;16.490;2023-02-24T08:06:56;98560.53;;;6.42;69.46
55373;BME280;41249;47.838;16.490;2023-02-24T08:09:29;98575.50;;;6.41;69.80
55373;BME280;41249;47.838;16.490;2023-02-24T08:12:20;98580.22;;;6.44;69.29
55373;BME280;41249;47.838;16.490;2023-02-24T08:14:50;98584.56;;;6.45;69.70
55373;BME280;41249;47.838;16.490;2023-02-24T08:17:25;98573.13;;;6.47;69.86
55373;BME280;41249;47.838;16.490;2023-02-24T08:19:53;98568.50;;;6.61;70.00
55373;BME280;41249;47.838;16.490;2023-02-24T08:22:42;98572.09;;;6.80;69.78
55373;BME280;41249;47.838;16.490;2023-02-24T08:25:26;98560.69;;;6.92;68.96
55373;BME280;41249;47.838;16.490;2023-02-24T08:28:04;98558.34;;;6.97;68.71
55373;BME280;41249;47.838;16.490;2023-02-24T08:30:36;98554.41;;;7.02;68.27
55373;BME280;41249;47.838;16.490;2023-02-24T08:33:06;98556.00;;;7.17;67.96
55373;BME280;41249;47.838;16.490;2023-02-24T08:35:37;98552.88;;;7.25;68.11
55373;BME280;41249;47.838;16.490;2023-02-24T08:38:10;98549.31;;;7.32;67.85
55373;BME280;41249;47.838;16.490;2023-02-24T08:40:48;98546.56;;;7.36;67.11
55373;BME280;41249;47.838;16.490;2023-02-24T08:43:30;98544.97;;;7.38;67.14
55373;BME280;41249;47.838;16.490;2023-02-24T08:46:02;98538.28;;;7.46;66.75
55373;BME280;41249;47.838;16.490;2023-02-24T08:48:35;98541.81;;;7.50;66.95
55373;BME280;41249;47.838;16.490;2023-02-24T08:51:26;98539.03;;;7.68;66.14
55373;BME280;41249;47.838;16.490;2023-02-24T08:53:59;98528.34;;;7.77;66.53
55373;BME280;41249;47.838;16.490;2023-02-24T08:56:28;98533.09;;;7.83;66.19
55373;BME280;41249;47.838;16.490;2023-02-24T08:58:57;98525.56;;;7.84;65.09
55373;BME280;41249;47.838;16.490;2023-02-24T09:01:35;98523.59;;;7.84;64.83
55373;BME280;41249;47.838;16.490;2023-02-24T09:04:10;98522.81;;;7.87;64.39
55373;BME280;41249;47.838;16.490;2023-02-24T09:06:44;98520.44;;;7.89;63.97
55373;BME280;41249;47.838;16.490;2023-02-24T09:09:13;98510.53;;;8.03;64.48
55373;BME280;41249;47.838;16.490;2023-02-24T09:11:44;98510.13;;;8.15;63.72
55373;BME280;41249;47.838;16.490;2023-02-24T09:14:15;98509.19;;;8.49;63.08
55373;BME280;41249;47.838;16.490;2023-02-24T09:16:53;98513.06;;;8.63;61.95
55373;BME280;41249;47.838;16.490;2023-02-24T09:19:43;98504.41;;;8.57;61.64
55373;BME280;41249;47.838;16.490;2023-02-24T09:22:14;98502.97;;;8.97;61.11
55373;BME280;41249;47.838;16.490;2023-02-24T09:24:47;98504.31;;;9.33;60.11
55373;BME280;41249;47.838;16.490;2023-02-24T09:27:16;98499.38;;;9.51;59.28
55373;BME280;41249;47.838;16.490;2023-02-24T09:29:43;98502.88;;;9.59;59.32
55373;BME280;41249;47.838;16.490;2023-02-24T09:32:15;98497.31;;;9.96;58.57
55373;BME280;41249;47.838;16.490;2023-02-24T09:34:42;98486.63;;;9.98;57.76
55373;BME280;41249;47.838;16.490;2023-02-24T09:37:13;98483.72;;;10.39;56.91
55373;BME280;41249;47.838;16.490;2023-02-24T09:39:53;98488.50;;;10.38;56.92
55373;BME280;41249;47.838;16.490;2023-02-24T09:42:22;98472.47;;;10.53;56.28
55373;BME280;41249;47.838;16.490;2023-02-24T09:44:51;98471.38;;;10.47;56.82
55373;BME280;41249;47.838;16.490;2023-02-24T09:47:41;98469.63;;;10.26;55.72
55373;BME280;41249;47.838;16.490;2023-02-24T09:53:13;98460.84;;;9.64;57.84
55373;BME280;41249;47.838;16.490;2023-02-24T09:58:43;98447.00;;;9.19;57.78
55373;BME280;41249;47.838;16.490;2023-02-24T10:09:34;98440.44;;;9.51;57.72
55373;BME280;41249;47.838;16.490;2023-02-24T10:12:15;98435.88;;;9.67;57.18
55373;BME280;41249;47.838;16.490;2023-02-24T10:15:02;98438.75;;;9.57;57.41
55373;BME280;41249;47.838;16.490;2023-02-24T10:17:50;98418.38;;;9.40;57.82
55373;BME280;41249;47.838;16.490;2023-02-24T10:20:25;98422.28;;;9.43;57.63
55373;BME280;41249;47.838;16.490;2023-02-24T10:23:59;98412.75;;;9.47;57.56
55373;BME280;41249;47.838;16.490;2023-02-24T10:26:17;98408.69;;;9.89;56.38
55373;BME280;41249;47.838;16.490;2023-02-24T10:31:46;98400.56;;;10.35;55.87
55373;BME280;41249;47.838;16.490;2023-02-24T10:34:15;98398.97;;;10.65;54.39
55373;BME280;41249;47.838;16.490;2023-02-24T10:36:51;98393.56;;;11.04;53.96
55373;BME280;41249;47.838;16.490;2023-02-24T10:39:24;98386.69;;;11.12;53.02
55373;BME280;41249;47.838;16.490;2023-02-24T10:41:57;98388.72;;;11.08;52.63
55373;BME280;41249;47.838;16.490;2023-02-24T10:44:28;98379.94;;;10.90;51.81
55373;BME280;41249;47.838;16.490;2023-02-24T10:47:05;98377.16;;;11.56;52.32
55373;BME280;41249;47.838;16.490;2023-02-24T10:49:48;98366.97;;;11.89;50.93
55373;BME280;41249;47.838;16.490;2023-02-24T10:52:30;98362.06;;;11.77;51.42
55373;BME280;41249;47.838;16.490;2023-02-24T10:58:22;98351.47;;;12.07;49.62
55373;BME280;41249;47.838;16.490;2023-02-24T11:01:16;98343.56;;;11.86;50.47
55373;BME280;41249;47.838;16.490;2023-02-24T11:04:13;98331.91;;;12.11;50.22
55373;BME280;41249;47.838;16.490;2023-02-24T11:07:14;98322.88;;;12.07;50.06
55373;BME280;41249;47.838;16.490;2023-02-24T11:10:04;98317.19;;;12.10;49.69
55373;BME280;41249;47.838;16.490;2023-02-24T11:12:44;98311.06;;;12.19;48.18
55373;BME280;41249;47.838;16.490;2023-02-24T11:15:41;98303.84;;;12.21;49.08
55373;BME280;41249;47.838;16.490;2023-02-24T11:18:29;98303.53;;;12.52;48.87
55373;BME280;41249;47.838;16.490;2023-02-24T11:20:59;98295.09;;;12.71;48.13
55373;BME280;41249;47.838;16.490;2023-02-24T11:23:56;98290.53;;;12.45;49.13
55373;BME280;41249;47.838;16.490;2023-02-24T11:26:35;98283.00;;;11.78;48.95
55373;BME280;41249;47.838;16.490;2023-02-24T11:34:47;98264.03;;;11.72;49.68
55373;BME280;41249;47.838;16.490;2023-02-24T11:40:06;98252.25;;;12.01;48.92
55373;BME280;41249;47.838;16.490;2023-02-24T11:42:50;98244.06;;;11.78;49.17
55373;BME280;41249;47.838;16.490;2023-02-24T11:46:08;98241.31;;;11.58;49.57
55373;BME280;41249;47.838;16.490;2023-02-24T11:48:17;98235.34;;;11.20;49.84
55373;BME280;41249;47.838;16.490;2023-02-24T11:50:52;98231.94;;;11.48;48.77
55373;BME280;41249;47.838;16.490;2023-02-24T11:56:23;98221.69;;;11.45;49.67
55373;BME280;41249;47.838;16.490;2023-02-24T12:01:46;98212.81;;;11.15;49.91
55373;BME280;41249;47.838;16.490;2023-02-24T12:04:37;98200.44;;;10.99;50.34
55373;BME280;41249;47.838;16.490;2023-02-24T12:07:13;98193.38;;;11.34;49.49
55373;BME280;41249;47.838;16.490;2023-02-24T12:09:54;98191.78;;;11.33;49.59
55373;BME280;41249;47.838;16.490;2023-02-24T12:15:48;98174.69;;;11.35;49.40
55373;BME280;41249;47.838;16.490;2023-02-24T12:18:24;98169.38;;;11.04;49.00
55373;BME280;41249;47.838;16.490;2023-02-24T12:23:45;98177.06;;;10.34;50.84
55373;BME280;41249;47.838;16.490;2023-02-24T12:26:24;98176.03;;;10.25;50.74
55373;BME280;41249;47.838;16.490;2023-02-24T12:56:40;98116.91;;;11.10;49.54
55373;BME280;41249;47.838;16.490;2023-02-24T12:59:13;98110.84;;;11.15;49.76
55373;BME280;41249;47.838;16.490;2023-02-24T13:02:02;98110.84;;;10.95;49.89
55373;BME280;41249;47.838;16.490;2023-02-24T13:08:02;98104.91;;;11.49;49.30
55373;BME280;41249;47.838;16.490;2023-02-24T13:10:46;98100.88;;;11.34;48.86
55373;BME280;41249;47.838;16.490;2023-02-24T13:13:35;98091.06;;;10.93;50.20
55373;BME280;41249;47.838;16.490;2023-02-24T13:16:05;98088.53;;;10.83;50.28
55373;BME280;41249;47.838;16.490;2023-02-24T13:18:35;98083.75;;;10.64;50.29
55373;BME280;41249;47.838;16.490;2023-02-24T13:21:18;98082.31;;;10.36;50.79
55373;BME280;41249;47.838;16.490;2023-02-24T13:23:58;98084.06;;;10.26;51.26
55373;BME280;41249;47.838;16.490;2023-02-24T13:26:29;98067.63;;;10.16;51.29
55373;BME280;41249;47.838;16.490;2023-02-24T13:29:11;98069.47;;;10.03;51.58
55373;BME280;41249;47.838;16.490;2023-02-24T13:31:51;98070.81;;;9.95;51.75
55373;BME280;41249;47.838;16.490;2023-02-24T13:36:58;98057.03;;;9.68;52.72
55373;BME280;41249;47.838;16.490;2023-02-24T13:39:34;98058.81;;;9.55;52.58
55373;BME280;41249;47.838;16.490;2023-02-24T13:42:21;98055.19;;;9.35;52.90
55373;BME280;41249;47.838;16.490;2023-02-24T13:45:25;98054.91;;;9.26;52.79
55373;BME280;41249;47.838;16.490;2023-02-24T13:51:39;98055.38;;;9.20;52.70
55373;BME280;41249;47.838;16.490;2023-02-24T13:57:21;98050.56;;;9.25;53.12
55373;BME280;41249;47.838;16.490;2023-02-24T14:02:58;98045.47;;;9.23;53.42
55373;BME280;41249;47.838;16.490;2023-02-24T14:05:29;98042.78;;;9.16;53.31
55373;BME280;41249;47.838;16.490;2023-02-24T14:07:57;98042.88;;;9.09;53.53
55373;BME280;41249;47.838;16.490;2023-02-24T14:10:31;98041.03;;;9.02;54.13
55373;BME280;41249;47.838;16.490;2023-02-24T14:13:24;98033.19;;;8.97;53.49
55373;BME280;41249;47.838;16.490;2023-02-24T14:15:53;98030.06;;;8.95;54.03
55373;BME280;41249;47.838;16.490;2023-02-24T14:18:24;98022.59;;;8.92;53.91
55373;BME280;41249;47.838;16.490;2023-02-24T14:20:52;98017.03;;;8.92;54.31
55373;BME280;41249;47.838;16.490;2023-02-24T14:25:45;98014.63;;;8.94;53.88
55373;BME280;41249;47.838;16.490;2023-02-24T14:28:17;98019.78;;;8.96;53.71
55373;BME280;41249;47.838;16.490;2023-02-24T14:30:52;98010.69;;;8.95;53.75
55373;BME280;41249;47.838;16.490;2023-02-24T14:33:24;98002.75;;;8.97;53.53
55373;BME280;41249;47.838;16.490;2023-02-24T14:35:52;98005.47;;;9.01;53.93
55373;BME280;41249;47.838;16.490;2023-02-24T14:38:31;97997.56;;;8.99;53.28
55373;BME280;41249;47.838;16.490;2023-02-24T14:41:01;98001.91;;;9.00;53.67
55373;BME280;41249;47.838;16.490;2023-02-24T14:43:28;98002.75;;;8.97;53.38
55373;BME280;41249;47.838;16.490;2023-02-24T14:45:55;98005.47;;;9.01;52.98
55373;BME280;41249;47.838;16.490;2023-02-24T14:48:29;97997.16;;;9.01;53.07
55373;BME280;41249;47.838;16.490;2023-02-24T14:51:00;97983.72;;;8.99;52.44
55373;BME280;41249;47.838;16.490;2023-02-24T14:53:29;97988.44;;;9.02;52.47
55373;BME280;41249;47.838;16.490;2023-02-24T14:55:59;97982.88;;;9.02;52.42
55373;BME280;41249;47.838;16.490;2023-02-24T14:58:52;97974.59;;;9.02;52.51
55373;BME280;41249;47.838;16.490;2023-02-24T15:01:35;97972.66;;;8.99;52.17
55373;BME280;41249;47.838;16.490;2023-02-24T15:04:32;97971.47;;;9.00;51.93
55373;BME280;41249;47.838;16.490;2023-02-24T15:07:03;97977.34;;;9.02;51.92
55373;BME280;41249;47.838;16.490;2023-02-24T15:09:41;97964.69;;;9.01;51.44
55373;BME280;41249;47.838;16.490;2023-02-24T15:15:04;97960.03;;;8.98;51.63
55373;BME280;41249;47.838;16.490;2023-02-24T15:17:32;97963.28;;;8.93;51.74
55373;BME280;41249;47.838;16.490;2023-02-24T15:20:24;97960.13;;;8.91;50.61
55373;BME280;41249;47.838;16.490;2023-02-24T15:22:50;97957.78;;;8.90;51.57
55373;BME280;41249;47.838;16.490;2023-02-24T15:25:40;97947.13;;;8.88;51.42
55373;BME280;41249;47.838;16.490;2023-02-24T15:28:22;97945.91;;;8.89;51.82
55373;BME280;41249;47.838;16.490;2023-02-24T15:31:18;97947.50;;;8.90;50.45
55373;BME280;41249;47.838;16.490;2023-02-24T15:33:58;97949.47;;;8.90;50.85